createdAt,value
2016-05-24T00:00:15.685Z,0
2016-05-24T00:01:15.859Z,0
2016-05-24T00:02:15.754Z,0
2016-05-24T00:03:15.928Z,0
2016-05-24T00:04:15.946Z,0
2016-05-24T00:05:15.792Z,0
2016-05-24T00:06:15.982Z,0
2016-05-24T00:07:15.844Z,0
2016-05-24T00:08:16.034Z,0
2016-05-24T00:09:16.053Z,0
2016-05-24T00:10:16.087Z,0
2016-05-24T00:11:15.964Z,0
2016-05-24T00:12:16.139Z,0
2016-05-24T00:13:16.158Z,0
2016-05-24T00:14:16.363Z,0
2016-05-24T00:15:15.741Z,0
2016-05-24T00:16:16.228Z,0
2016-05-24T00:17:16.262Z,0
2016-05-24T00:18:16.280Z,0
2016-05-24T00:19:16.142Z,0
2016-05-24T00:20:16.349Z,0
2016-05-24T00:21:16.336Z,0
2016-05-24T00:22:16.213Z,0
2016-05-24T00:23:16.403Z,0
2016-05-24T00:24:16.265Z,0
2016-05-24T00:25:16.283Z,0
2016-05-24T00:26:16.317Z,0
2016-05-24T00:27:16.336Z,0
2016-05-24T00:28:16.510Z,0
2016-05-24T00:29:16.404Z,0
2016-05-24T00:30:16.796Z,0
2016-05-24T00:31:16.285Z,0
2016-05-24T00:32:16.615Z,0
2016-05-24T00:33:16.477Z,0
2016-05-24T00:34:16.682Z,0
2016-05-24T00:35:16.701Z,0
2016-05-24T00:36:16.703Z,0
2016-05-24T00:37:16.722Z,0
2016-05-24T00:38:16.600Z,0
2016-05-24T00:39:16.775Z,0
2016-05-24T00:40:16.793Z,0
2016-05-24T00:41:16.826Z,0
2016-05-24T00:42:16.845Z,0
2016-05-24T00:43:16.878Z,0
2016-05-24T00:44:16.772Z,0
2016-05-24T00:45:17.087Z,0
2016-05-24T00:46:16.965Z,0
2016-05-24T00:47:16.827Z,0
2016-05-24T00:48:17.002Z,0
2016-05-24T00:49:17.036Z,0
2016-05-24T00:50:17.039Z,0
2016-05-24T00:51:17.072Z,0
2016-05-24T00:52:17.091Z,0
2016-05-24T00:53:16.812Z,0
2016-05-24T00:54:17.143Z,0
2016-05-24T00:55:17.177Z,0
2016-05-24T00:56:17.039Z,0
2016-05-24T00:57:17.213Z,0
2016-05-24T00:58:17.247Z,0
2016-05-24T00:59:17.265Z,0
2016-05-24T01:00:17.310Z,0
2016-05-24T01:01:17.201Z,0
2016-05-24T01:02:17.404Z,0
2016-05-24T01:03:17.451Z,0
2016-05-24T01:04:17.528Z,0
2016-05-24T01:05:17.552Z,0
2016-05-24T01:06:17.581Z,0
2016-05-24T01:07:17.624Z,0
2016-05-24T01:08:17.529Z,0
2016-05-24T01:09:17.698Z,0
2016-05-24T01:10:17.723Z,0
2016-05-24T01:11:17.761Z,0
2016-05-24T01:12:17.627Z,0
2016-05-24T01:13:17.805Z,0
2016-05-24T01:14:18.312Z,0
2016-05-24T01:15:17.834Z,0
2016-05-24T01:16:17.899Z,0
2016-05-24T01:17:17.919Z,0
2016-05-24T01:18:17.938Z,0
2016-05-24T01:19:17.957Z,0
2016-05-24T01:20:17.836Z,0
2016-05-24T01:21:17.871Z,0
2016-05-24T01:22:17.889Z,0
2016-05-24T01:23:18.065Z,0
2016-05-24T01:24:18.098Z,0
2016-05-24T01:25:18.118Z,0
2016-05-24T01:26:18.135Z,0
2016-05-24T01:27:18.170Z,0
2016-05-24T01:28:18.032Z,0
2016-05-24T01:29:18.067Z,0
2016-05-24T01:30:18.272Z,0
2016-05-24T01:31:18.261Z,0
2016-05-24T01:32:18.279Z,0
2016-05-24T01:33:18.312Z,0
2016-05-24T01:34:18.346Z,0
2016-05-24T01:35:18.208Z,0
2016-05-24T01:36:18.382Z,0
2016-05-24T01:37:18.402Z,0
2016-05-24T01:38:18.420Z,0
2016-05-24T01:39:18.453Z,0
2016-05-24T01:40:18.316Z,0
2016-05-24T01:41:18.349Z,0
2016-05-24T01:42:18.524Z,0
2016-05-24T01:43:18.401Z,0
2016-05-24T01:44:18.655Z,0
2016-05-24T01:45:18.407Z,0
2016-05-24T01:46:18.629Z,0
2016-05-24T01:47:18.646Z,0
2016-05-24T01:48:18.681Z,0
2016-05-24T01:49:18.715Z,0
2016-05-24T01:50:18.718Z,0
2016-05-24T01:51:18.751Z,0
2016-05-24T01:52:18.629Z,0
2016-05-24T01:53:18.803Z,0
2016-05-24T01:54:18.822Z,0
2016-05-24T01:55:18.684Z,0
2016-05-24T01:56:18.874Z,0
2016-05-24T01:57:18.876Z,0
2016-05-24T01:58:18.911Z,0
2016-05-24T01:59:19.367Z,0
2016-05-24T02:00:18.964Z,0
2016-05-24T02:01:19.028Z,0
2016-05-24T02:02:18.859Z,0
2016-05-24T02:03:19.033Z,0
2016-05-24T02:04:19.067Z,0
2016-05-24T02:05:19.085Z,0
2016-05-24T02:06:19.105Z,0
2016-05-24T02:07:18.826Z,0
2016-05-24T02:08:19.156Z,0
2016-05-24T02:09:19.174Z,0
2016-05-24T02:10:19.208Z,0
2016-05-24T02:11:19.227Z,0
2016-05-24T02:12:19.246Z,0
2016-05-24T02:13:19.280Z,0
2016-05-24T02:14:20.079Z,0
2016-05-24T02:15:19.175Z,0
2016-05-24T02:16:19.349Z,0
2016-05-24T02:17:19.368Z,0
2016-05-24T02:18:19.402Z,0
2016-05-24T02:19:19.264Z,0
2016-05-24T02:20:19.455Z,0
2016-05-24T02:21:19.316Z,0
2016-05-24T02:22:19.506Z,0
2016-05-24T02:23:19.509Z,0
2016-05-24T02:24:19.559Z,0
2016-05-24T02:25:19.281Z,0
2016-05-24T02:26:19.595Z,0
2016-05-24T02:27:19.629Z,0
2016-05-24T02:28:19.632Z,0
2016-05-24T02:29:19.667Z,0
2016-05-24T02:30:19.950Z,0
2016-05-24T02:31:19.718Z,0
2016-05-24T02:32:19.736Z,0
2016-05-24T02:33:19.770Z,0
2016-05-24T02:34:19.475Z,0
2016-05-24T02:35:19.808Z,0
2016-05-24T02:36:19.685Z,0
2016-05-24T02:37:19.859Z,0
2016-05-24T02:38:19.893Z,0
2016-05-24T02:39:19.911Z,0
2016-05-24T02:40:19.633Z,0
2016-05-24T02:41:19.949Z,0
2016-05-24T02:42:19.983Z,0
2016-05-24T02:43:19.844Z,0
2016-05-24T02:44:20.049Z,0
2016-05-24T02:45:20.068Z,0
2016-05-24T02:46:19.774Z,0
2016-05-24T02:47:19.949Z,0
2016-05-24T02:48:20.124Z,0
2016-05-24T02:49:20.157Z,0
2016-05-24T02:50:20.238Z,0
2016-05-24T02:51:20.115Z,0
2016-05-24T02:52:20.071Z,0
2016-05-24T02:53:19.996Z,0
2016-05-24T02:54:20.327Z,0
2016-05-24T02:55:20.157Z,0
2016-05-24T02:56:20.160Z,0
2016-05-24T02:57:20.335Z,0
2016-05-24T02:58:20.370Z,0
2016-05-24T02:59:20.840Z,0
2016-05-24T03:00:20.421Z,0
2016-05-24T03:01:20.439Z,0
2016-05-24T03:02:20.458Z,0
2016-05-24T03:03:20.492Z,0
2016-05-24T03:04:20.511Z,0
2016-05-24T03:05:20.528Z,0
2016-05-24T03:06:20.562Z,0
2016-05-24T03:07:20.581Z,0
2016-05-24T03:08:20.599Z,0
2016-05-24T03:09:20.492Z,0
2016-05-24T03:10:20.652Z,0
2016-05-24T03:11:20.529Z,0
2016-05-24T03:12:20.703Z,0
2016-05-24T03:13:20.721Z,0
2016-05-24T03:14:20.787Z,0
2016-05-24T03:15:20.930Z,0
2016-05-24T03:16:20.793Z,0
2016-05-24T03:17:20.671Z,0
2016-05-24T03:18:20.688Z,0
2016-05-24T03:19:20.878Z,0
2016-05-24T03:20:20.912Z,0
2016-05-24T03:21:20.915Z,4
2016-05-24T03:22:20.949Z,4
2016-05-24T03:23:20.968Z,4
2016-05-24T03:24:20.985Z,4
2016-05-24T03:25:21.020Z,4
2016-05-24T03:26:20.882Z,0
2016-05-24T03:27:21.056Z,0
2016-05-24T03:28:20.934Z,4
2016-05-24T03:29:20.968Z,4
2016-05-24T03:30:21.033Z,4
2016-05-24T03:31:21.161Z,4
2016-05-24T03:32:21.039Z,8
2016-05-24T03:33:21.197Z,8
2016-05-24T03:34:21.231Z,4
2016-05-24T03:35:20.953Z,4
2016-05-24T03:36:21.283Z,8
2016-05-24T03:37:21.303Z,8
2016-05-24T03:38:21.336Z,8
2016-05-24T03:39:21.355Z,12
2016-05-24T03:40:21.372Z,8
2016-05-24T03:41:21.406Z,12
2016-05-24T03:42:21.268Z,12
2016-05-24T03:43:21.459Z,12
2016-05-24T03:44:21.321Z,12
2016-05-24T03:45:21.339Z,16
2016-05-24T03:46:21.529Z,12
2016-05-24T03:47:21.547Z,16
2016-05-24T03:48:21.565Z,16
2016-05-24T03:49:21.585Z,16
2016-05-24T03:50:21.618Z,20
2016-05-24T03:51:21.480Z,20
2016-05-24T03:52:21.654Z,20
2016-05-24T03:53:21.533Z,24
2016-05-24T03:54:21.707Z,24
2016-05-24T03:55:21.741Z,24
2016-05-24T03:56:21.759Z,24
2016-05-24T03:57:21.793Z,24
2016-05-24T03:58:21.656Z,28
2016-05-24T03:59:21.829Z,28
2016-05-24T04:00:22.395Z,32
2016-05-24T04:01:21.726Z,32
2016-05-24T04:02:21.900Z,36
2016-05-24T04:03:21.934Z,40
2016-05-24T04:04:21.812Z,40
2016-05-24T04:05:21.815Z,40
2016-05-24T04:06:21.848Z,44
2016-05-24T04:07:22.023Z,44
2016-05-24T04:08:21.885Z,52
2016-05-24T04:09:22.075Z,52
2016-05-24T04:10:21.938Z,56
2016-05-24T04:11:22.128Z,60
2016-05-24T04:12:22.146Z,68
2016-05-24T04:13:22.024Z,72
2016-05-24T04:14:22.198Z,72
2016-05-24T04:15:22.247Z,88
2016-05-24T04:16:22.236Z,96
2016-05-24T04:17:22.269Z,100
2016-05-24T04:18:22.288Z,100
2016-05-24T04:19:22.305Z,108
2016-05-24T04:20:22.182Z,120
2016-05-24T04:21:22.358Z,124
2016-05-24T04:22:22.376Z,136
2016-05-24T04:23:22.394Z,144
2016-05-24T04:24:22.429Z,156
2016-05-24T04:25:22.149Z,168
2016-05-24T04:26:22.324Z,196
2016-05-24T04:27:22.498Z,212
2016-05-24T04:28:22.533Z,228
2016-05-24T04:29:22.551Z,224
2016-05-24T04:30:22.476Z,240
2016-05-24T04:31:22.587Z,264
2016-05-24T04:32:22.622Z,280
2016-05-24T04:33:22.640Z,276
2016-05-24T04:34:22.659Z,260
2016-05-24T04:35:22.536Z,248
2016-05-24T04:36:22.726Z,256
2016-05-24T04:37:22.431Z,272
2016-05-24T04:38:22.763Z,280
2016-05-24T04:39:22.641Z,284
2016-05-24T04:40:22.815Z,292
2016-05-24T04:41:22.833Z,304
2016-05-24T04:42:22.867Z,312
2016-05-24T04:43:22.885Z,324
2016-05-24T04:44:22.905Z,332
2016-05-24T04:45:22.797Z,348
2016-05-24T04:46:22.816Z,356
2016-05-24T04:47:22.974Z,356
2016-05-24T04:48:22.993Z,332
2016-05-24T04:49:23.026Z,320
2016-05-24T04:50:23.046Z,320
2016-05-24T04:51:23.080Z,324
2016-05-24T04:52:23.113Z,320
2016-05-24T04:53:23.131Z,328
2016-05-24T04:54:22.993Z,344
2016-05-24T04:55:23.027Z,368
2016-05-24T04:56:23.202Z,380
2016-05-24T04:57:23.065Z,368
2016-05-24T04:58:23.098Z,352
2016-05-24T04:59:23.256Z,360
2016-05-24T05:00:23.932Z,384
2016-05-24T05:01:23.309Z,400
2016-05-24T05:02:23.343Z,400
2016-05-24T05:03:23.362Z,412
2016-05-24T05:04:23.379Z,432
2016-05-24T05:05:23.257Z,460
2016-05-24T05:06:23.431Z,488
2016-05-24T05:07:23.309Z,524
2016-05-24T05:08:23.484Z,536
2016-05-24T05:09:23.503Z,516
2016-05-24T05:10:23.536Z,512
2016-05-24T05:11:23.555Z,508
2016-05-24T05:12:23.573Z,528
2016-05-24T05:13:23.608Z,532
2016-05-24T05:14:23.625Z,540
2016-05-24T05:15:23.659Z,584
2016-05-24T05:16:23.677Z,624
2016-05-24T05:17:23.711Z,676
2016-05-24T05:18:23.730Z,740
2016-05-24T05:19:23.577Z,760
2016-05-24T05:20:23.766Z,732
2016-05-24T05:21:23.816Z,680
2016-05-24T05:22:23.835Z,648
2016-05-24T05:23:23.697Z,640
2016-05-24T05:24:23.854Z,648
2016-05-24T05:25:23.749Z,656
2016-05-24T05:26:23.908Z,640
2016-05-24T05:27:23.941Z,628
2016-05-24T05:28:23.975Z,644
2016-05-24T05:29:24.009Z,660
2016-05-24T05:30:24.043Z,676
2016-05-24T05:31:24.046Z,676
2016-05-24T05:32:24.064Z,652
2016-05-24T05:33:23.943Z,652
2016-05-24T05:34:24.117Z,648
2016-05-24T05:35:24.134Z,628
2016-05-24T05:36:24.170Z,632
2016-05-24T05:37:24.031Z,640
2016-05-24T05:38:24.220Z,652
2016-05-24T05:39:24.239Z,664
2016-05-24T05:40:24.273Z,704
2016-05-24T05:41:24.292Z,752
2016-05-24T05:42:24.325Z,788
2016-05-24T05:43:24.359Z,812
2016-05-24T05:44:24.206Z,852
2016-05-24T05:45:24.958Z,892
2016-05-24T05:46:24.414Z,920
2016-05-24T05:47:24.432Z,932
2016-05-24T05:48:24.466Z,928
2016-05-24T05:49:24.486Z,924
2016-05-24T05:50:24.550Z,932
2016-05-24T05:51:24.538Z,956
2016-05-24T05:52:24.415Z,948
2016-05-24T05:53:24.590Z,924
2016-05-24T05:54:24.623Z,944
2016-05-24T05:55:24.641Z,980
2016-05-24T05:56:24.660Z,992
2016-05-24T05:57:24.694Z,996
2016-05-24T05:58:24.712Z,980
2016-05-24T05:59:24.746Z,968
2016-05-24T06:00:24.624Z,948
2016-05-24T06:01:24.798Z,932
2016-05-24T06:02:24.676Z,936
2016-05-24T06:03:24.537Z,940
2016-05-24T06:04:24.870Z,916
2016-05-24T06:05:24.918Z,884
2016-05-24T06:06:24.921Z,856
2016-05-24T06:07:24.939Z,868
2016-05-24T06:08:24.973Z,892
2016-05-24T06:09:24.991Z,872
2016-05-24T06:10:24.869Z,828
2016-05-24T06:11:25.467Z,816
2016-05-24T06:12:25.109Z,832
2016-05-24T06:13:31.189Z,840
2016-05-24T06:14:25.303Z,824
2016-05-24T06:15:25.195Z,800
2016-05-24T06:16:25.838Z,784
2016-05-24T06:17:25.216Z,768
2016-05-24T06:18:25.219Z,744
2016-05-24T06:19:25.285Z,736
2016-05-24T06:20:25.272Z,724
2016-05-24T06:21:25.305Z,708
2016-05-24T06:22:25.339Z,692
2016-05-24T06:23:25.357Z,700
2016-05-24T06:24:25.391Z,736
2016-05-24T06:25:25.254Z,780
2016-05-24T06:26:25.288Z,840
2016-05-24T06:27:25.306Z,916
2016-05-24T06:28:25.340Z,1000
2016-05-24T06:29:25.515Z,1072
2016-05-24T06:30:25.814Z,1132
2016-05-24T06:31:25.410Z,1172
2016-05-24T06:32:25.429Z,1184
2016-05-24T06:33:25.463Z,1156
2016-05-24T06:34:25.653Z,1096
2016-05-24T06:35:25.671Z,1040
2016-05-24T06:36:25.534Z,980
2016-05-24T06:37:25.739Z,952
2016-05-24T06:38:25.757Z,944
2016-05-24T06:39:25.620Z,980
2016-05-24T06:40:25.795Z,1088
2016-05-24T06:41:25.828Z,1164
2016-05-24T06:42:25.689Z,1172
2016-05-24T06:43:25.880Z,1164
2016-05-24T06:44:25.898Z,1144
2016-05-24T06:45:25.964Z,1136
2016-05-24T06:46:25.967Z,1136
2016-05-24T06:47:25.985Z,1144
2016-05-24T06:48:26.003Z,1156
2016-05-24T06:49:26.022Z,1152
2016-05-24T06:50:26.072Z,1140
2016-05-24T06:51:26.089Z,1128
2016-05-24T06:52:26.108Z,1128
2016-05-24T06:53:26.157Z,1144
2016-05-24T06:54:26.316Z,1196
2016-05-24T06:55:26.491Z,1256
2016-05-24T06:56:26.227Z,1312
2016-05-24T06:57:26.340Z,1344
2016-05-24T06:58:26.374Z,1368
2016-05-24T06:59:26.283Z,1368
2016-05-24T07:00:27.442Z,1352
2016-05-24T07:01:26.210Z,1288
2016-05-24T07:02:26.385Z,1180
2016-05-24T07:03:26.387Z,1120
2016-05-24T07:04:26.421Z,1100
2016-05-24T07:05:26.284Z,1160
2016-05-24T07:06:26.473Z,1248
2016-05-24T07:07:26.492Z,1296
2016-05-24T07:08:26.526Z,1336
2016-05-24T07:09:26.560Z,1380
2016-05-24T07:10:26.578Z,1364
2016-05-24T07:11:29.612Z,1468
2016-05-24T07:12:26.631Z,1608
2016-05-24T07:13:26.368Z,1636
2016-05-24T07:14:26.526Z,1568
2016-05-24T07:15:27.138Z,1572
2016-05-24T07:16:26.750Z,1608
2016-05-24T07:17:26.816Z,1648
2016-05-24T07:18:26.864Z,1624
2016-05-24T07:19:26.821Z,1592
2016-05-24T07:20:26.839Z,1620
2016-05-24T07:21:26.873Z,1740
2016-05-24T07:22:26.891Z,1884
2016-05-24T07:23:26.988Z,2052
2016-05-24T07:24:26.944Z,2064
2016-05-24T07:25:26.822Z,2104
2016-05-24T07:26:26.855Z,2332
2016-05-24T07:27:27.061Z,2620
2016-05-24T07:28:27.205Z,2628
2016-05-24T07:29:27.082Z,2544
2016-05-24T07:30:27.257Z,2660
2016-05-24T07:31:27.165Z,2776
2016-05-24T07:32:27.246Z,2544
2016-05-24T07:33:27.171Z,2348
2016-05-24T07:34:27.049Z,2152
2016-05-24T07:35:27.239Z,1912
2016-05-24T07:36:27.257Z,1748
2016-05-24T07:37:27.370Z,1696
2016-05-24T07:38:27.076Z,1632
2016-05-24T07:39:27.328Z,1552
2016-05-24T07:40:27.206Z,1596
2016-05-24T07:41:27.380Z,1744
2016-05-24T07:42:27.523Z,1996
2016-05-24T07:43:27.432Z,2360
2016-05-24T07:44:27.466Z,2744
2016-05-24T07:45:27.345Z,2928
2016-05-24T07:46:27.519Z,2952
2016-05-24T07:47:27.380Z,2924
2016-05-24T07:48:27.634Z,2976
2016-05-24T07:49:27.386Z,3080
2016-05-24T07:50:28.467Z,3360
2016-05-24T07:51:27.579Z,3652
2016-05-24T07:52:27.347Z,3796
2016-05-24T07:53:27.694Z,4168
2016-05-24T07:54:27.571Z,5124
2016-05-24T07:55:30.339Z,4796
2016-05-24T07:56:27.827Z,7260
2016-05-24T07:57:27.861Z,4532
2016-05-24T07:58:27.504Z,4904
2016-05-24T07:59:27.866Z,5412
2016-05-24T08:00:29.509Z,5896
2016-05-24T08:01:28.043Z,4452
2016-05-24T08:02:28.015Z,3572
2016-05-24T08:03:27.971Z,3104
2016-05-24T08:04:28.193Z,2668
2016-05-24T08:05:29.288Z,2192
2016-05-24T08:06:28.026Z,2084
2016-05-24T08:07:28.137Z,2064
2016-05-24T08:08:28.078Z,2052
2016-05-24T08:09:27.956Z,2100
2016-05-24T08:10:29.880Z,2204
2016-05-24T08:11:28.164Z,2412
2016-05-24T08:12:28.198Z,2756
2016-05-24T08:13:28.232Z,3084
2016-05-24T08:14:28.250Z,3216
2016-05-24T08:15:30.003Z,3052
2016-05-24T08:16:28.412Z,2564
2016-05-24T08:17:28.321Z,2100
2016-05-24T08:18:28.355Z,1996
2016-05-24T08:19:28.388Z,2064
2016-05-24T08:20:29.000Z,2180
2016-05-24T08:21:28.520Z,2344
2016-05-24T08:22:28.522Z,2540
2016-05-24T08:23:28.259Z,2664
2016-05-24T08:24:28.340Z,2656
2016-05-24T08:25:28.983Z,2528
2016-05-24T08:26:28.407Z,2356
2016-05-24T08:27:28.582Z,2244
2016-05-24T08:28:28.632Z,2168
2016-05-24T08:29:28.635Z,2132
2016-05-24T08:30:28.543Z,2112
2016-05-24T08:31:28.686Z,2124
2016-05-24T08:32:28.814Z,2220
2016-05-24T08:33:28.738Z,2196
2016-05-24T08:34:28.882Z,1852
2016-05-24T08:35:28.666Z,1752
2016-05-24T08:36:28.825Z,2228
2016-05-24T08:37:29.031Z,2624
2016-05-24T08:38:28.721Z,2984
2016-05-24T08:39:28.926Z,3644
2016-05-24T08:40:31.148Z,4836
2016-05-24T08:41:28.682Z,5832
2016-05-24T08:42:28.810Z,6156
2016-05-24T08:43:28.844Z,6012
2016-05-24T08:44:29.018Z,5444
2016-05-24T08:45:30.537Z,4812
2016-05-24T08:46:29.070Z,4408
2016-05-24T08:47:29.120Z,3924
2016-05-24T08:48:29.138Z,3448
2016-05-24T08:49:29.047Z,3292
2016-05-24T08:50:29.254Z,3232
2016-05-24T08:51:29.209Z,3232
2016-05-24T08:52:29.242Z,3216
2016-05-24T08:53:29.120Z,3076
2016-05-24T08:54:29.295Z,2824
2016-05-24T08:55:31.125Z,2624
2016-05-24T08:56:32.348Z,2604
2016-05-24T08:57:32.381Z,2576
2016-05-24T08:58:29.400Z,2520
2016-05-24T08:59:29.418Z,2436
2016-05-24T09:00:32.139Z,2416
2016-05-24T09:01:29.486Z,2456
2016-05-24T09:02:29.504Z,2612
2016-05-24T09:03:29.570Z,2972
2016-05-24T09:04:29.635Z,3312
2016-05-24T09:05:29.293Z,3380
2016-05-24T09:06:29.609Z,3380
2016-05-24T09:07:29.643Z,3444
2016-05-24T09:08:29.505Z,3288
2016-05-24T09:09:29.632Z,3024
2016-05-24T09:10:29.776Z,2664
2016-05-24T09:11:29.748Z,2516
2016-05-24T09:12:29.657Z,2668
2016-05-24T09:13:29.721Z,2640
2016-05-24T09:14:29.677Z,2452
2016-05-24T09:15:30.180Z,2412
2016-05-24T09:16:29.886Z,2372
2016-05-24T09:17:29.748Z,2176
2016-05-24T09:18:29.766Z,1972
2016-05-24T09:19:29.956Z,1896
2016-05-24T09:20:30.865Z,1888
2016-05-24T09:21:30.009Z,1844
2016-05-24T09:22:30.058Z,1868
2016-05-24T09:23:30.061Z,2048
2016-05-24T09:24:30.079Z,2236
2016-05-24T09:25:30.379Z,2368
2016-05-24T09:26:30.209Z,2516
2016-05-24T09:27:29.868Z,2436
2016-05-24T09:28:30.184Z,2444
2016-05-24T09:29:30.217Z,2732
2016-05-24T09:30:31.845Z,2824
2016-05-24T09:31:30.130Z,2828
2016-05-24T09:32:30.007Z,2884
2016-05-24T09:33:30.338Z,2940
2016-05-24T09:34:30.200Z,3068
2016-05-24T09:35:30.233Z,3220
2016-05-24T09:36:30.392Z,3384
2016-05-24T09:37:30.427Z,3548
2016-05-24T09:38:30.523Z,3604
2016-05-24T09:39:30.479Z,3880
2016-05-24T09:40:30.497Z,4020
2016-05-24T09:41:30.531Z,4088
2016-05-24T09:42:30.565Z,4476
2016-05-24T09:43:30.427Z,4844
2016-05-24T09:44:30.601Z,4980
2016-05-24T09:45:32.120Z,4916
2016-05-24T09:46:30.528Z,4880
2016-05-24T09:47:30.532Z,4704
2016-05-24T09:48:30.723Z,4592
2016-05-24T09:49:30.583Z,4720
2016-05-24T09:50:30.993Z,4252
2016-05-24T09:51:30.823Z,3964
2016-05-24T09:52:30.904Z,3648
2016-05-24T09:53:30.845Z,3244
2016-05-24T09:54:30.722Z,2832
2016-05-24T09:55:37.037Z,2684
2016-05-24T09:56:30.915Z,2848
2016-05-24T09:57:30.808Z,3100
2016-05-24T09:58:30.827Z,3460
2016-05-24T09:59:30.845Z,3804
2016-05-24T10:00:32.583Z,4044
2016-05-24T10:01:31.116Z,3952
2016-05-24T10:02:30.931Z,3828
2016-05-24T10:03:31.184Z,3852
2016-05-24T10:04:31.218Z,4016
2016-05-24T10:05:30.999Z,4176
2016-05-24T10:06:31.049Z,4740
2016-05-24T10:07:31.090Z,5104
2016-05-24T10:08:31.301Z,5372
2016-05-24T10:09:31.020Z,5756
2016-05-24T10:10:31.076Z,6040
2016-05-24T10:11:31.289Z,6008
2016-05-24T10:12:31.580Z,5712
2016-05-24T10:13:31.346Z,5172
2016-05-24T10:14:31.482Z,4800
2016-05-24T10:15:32.770Z,4592
2016-05-24T10:16:31.488Z,4464
2016-05-24T10:17:31.636Z,4368
2016-05-24T10:18:31.673Z,4256
2016-05-24T10:19:31.725Z,4288
2016-05-24T10:20:31.715Z,4300
2016-05-24T10:21:34.209Z,4040
2016-05-24T10:22:31.787Z,4028
2016-05-24T10:23:31.697Z,4260
2016-05-24T10:24:31.826Z,4504
2016-05-24T10:25:31.861Z,4752
2016-05-24T10:26:33.009Z,4872
2016-05-24T10:27:31.759Z,4784
2016-05-24T10:28:32.043Z,4804
2016-05-24T10:29:31.968Z,4940
2016-05-24T10:30:32.206Z,4956
2016-05-24T10:31:32.131Z,4940
2016-05-24T10:32:32.605Z,5076
2016-05-24T10:33:32.074Z,5196
2016-05-24T10:34:32.185Z,5224
2016-05-24T10:35:31.970Z,5220
2016-05-24T10:36:32.159Z,5224
2016-05-24T10:37:33.103Z,5136
2016-05-24T10:38:32.056Z,4844
2016-05-24T10:39:32.309Z,4480
2016-05-24T10:40:32.264Z,3840
2016-05-24T10:41:32.298Z,3184
2016-05-24T10:42:33.459Z,2776
2016-05-24T10:43:32.194Z,2576
2016-05-24T10:44:32.369Z,2500
2016-05-24T10:45:32.419Z,2604
2016-05-24T10:46:32.358Z,3068
2016-05-24T10:47:34.130Z,3612
2016-05-24T10:48:32.333Z,4128
2016-05-24T10:49:32.508Z,4444
2016-05-24T10:50:32.369Z,4520
2016-05-24T10:51:32.403Z,4500
2016-05-24T10:52:33.156Z,4540
2016-05-24T10:53:32.502Z,4600
2016-05-24T10:54:32.489Z,4496
2016-05-24T10:55:32.663Z,4528
2016-05-24T10:56:32.698Z,4264
2016-05-24T10:57:32.732Z,4112
2016-05-24T10:58:32.766Z,3996
2016-05-24T10:59:32.768Z,4012
2016-05-24T11:00:34.632Z,4240
2016-05-24T11:01:32.820Z,4800
2016-05-24T11:02:33.277Z,5080
2016-05-24T11:03:32.873Z,5160
2016-05-24T11:04:32.907Z,5104
2016-05-24T11:05:32.769Z,4920
2016-05-24T11:06:32.990Z,4692
2016-05-24T11:07:33.196Z,4516
2016-05-24T11:08:32.715Z,4336
2016-05-24T11:09:33.139Z,4036
2016-05-24T11:10:33.095Z,3900
2016-05-24T11:11:33.098Z,3832
2016-05-24T11:12:33.803Z,3612
2016-05-24T11:13:33.228Z,3452
2016-05-24T11:14:33.027Z,3348
2016-05-24T11:15:33.437Z,3172
2016-05-24T11:16:33.252Z,3064
2016-05-24T11:17:33.379Z,3008
2016-05-24T11:18:33.148Z,2960
2016-05-24T11:19:33.166Z,2928
2016-05-24T11:20:33.341Z,3052
2016-05-24T11:21:33.375Z,3164
2016-05-24T11:22:33.299Z,3044
2016-05-24T11:23:33.411Z,2872
2016-05-24T11:24:33.445Z,2700
2016-05-24T11:25:33.416Z,2524
2016-05-24T11:26:33.357Z,2376
2016-05-24T11:27:33.532Z,2240
2016-05-24T11:28:33.565Z,2176
2016-05-24T11:29:33.880Z,2192
2016-05-24T11:30:33.821Z,2320
2016-05-24T11:31:33.652Z,2512
2016-05-24T11:32:33.654Z,2732
2016-05-24T11:33:33.704Z,3048
2016-05-24T11:34:33.582Z,3700
2016-05-24T11:35:33.616Z,4176
2016-05-24T11:36:33.774Z,4336
2016-05-24T11:37:33.792Z,4212
2016-05-24T11:38:33.842Z,4188
2016-05-24T11:39:33.845Z,4444
2016-05-24T11:40:33.895Z,4768
2016-05-24T11:41:33.772Z,5172
2016-05-24T11:42:33.775Z,5468
2016-05-24T11:43:34.059Z,5592
2016-05-24T11:44:34.061Z,5380
2016-05-24T11:45:34.095Z,5436
2016-05-24T11:46:34.128Z,5524
2016-05-24T11:47:34.069Z,5576
2016-05-24T11:48:34.025Z,5612
2016-05-24T11:49:34.106Z,5532
2016-05-24T11:50:34.250Z,5620
2016-05-24T11:51:34.175Z,5472
2016-05-24T11:52:34.191Z,5524
2016-05-24T11:53:34.086Z,5724
2016-05-24T11:54:34.167Z,5512
2016-05-24T11:55:34.122Z,5628
2016-05-24T11:56:34.156Z,5780
2016-05-24T11:57:34.018Z,5648
2016-05-24T11:58:34.208Z,5652
2016-05-24T11:59:34.243Z,5608
2016-05-24T12:00:34.666Z,5508
2016-05-24T12:01:34.310Z,5528
2016-05-24T12:02:34.532Z,5488
2016-05-24T12:03:34.331Z,5392
2016-05-24T12:04:34.381Z,5220
2016-05-24T12:05:34.243Z,4968
2016-05-24T12:06:34.574Z,4724
2016-05-24T12:07:34.451Z,4932
2016-05-24T12:08:34.485Z,4556
2016-05-24T12:09:34.645Z,4232
2016-05-24T12:10:34.523Z,4360
2016-05-24T12:11:34.571Z,4084
2016-05-24T12:12:34.746Z,4064
2016-05-24T12:13:34.748Z,3852
2016-05-24T12:14:34.642Z,3628
2016-05-24T12:15:35.426Z,3568
2016-05-24T12:16:34.850Z,3616
2016-05-24T12:17:34.728Z,3484
2016-05-24T12:18:34.981Z,3324
2016-05-24T12:19:34.765Z,3168
2016-05-24T12:20:34.970Z,2924
2016-05-24T12:21:34.972Z,2752
2016-05-24T12:22:34.851Z,2600
2016-05-24T12:23:34.885Z,2620
2016-05-24T12:24:35.310Z,2760
2016-05-24T12:25:35.077Z,2956
2016-05-24T12:26:35.128Z,3156
2016-05-24T12:27:34.989Z,3356
2016-05-24T12:28:35.007Z,3532
2016-05-24T12:29:34.885Z,3716
2016-05-24T12:30:35.122Z,3992
2016-05-24T12:31:35.094Z,4276
2016-05-24T12:32:35.347Z,4540
2016-05-24T12:33:35.162Z,4728
2016-05-24T12:34:35.415Z,4748
2016-05-24T12:35:35.355Z,4560
2016-05-24T12:36:35.405Z,4644
2016-05-24T12:37:35.282Z,4988
2016-05-24T12:38:35.566Z,5408
2016-05-24T12:39:35.318Z,5564
2016-05-24T12:40:35.493Z,5592
2016-05-24T12:41:35.527Z,5684
2016-05-24T12:42:35.561Z,5852
2016-05-24T12:43:35.407Z,5600
2016-05-24T12:44:35.597Z,5768
2016-05-24T12:45:36.350Z,5928
2016-05-24T12:46:35.495Z,6072
2016-05-24T12:47:35.825Z,6228
2016-05-24T12:48:35.561Z,6160
2016-05-24T12:49:35.705Z,5768
2016-05-24T12:50:35.770Z,4940
2016-05-24T12:51:35.883Z,4640
2016-05-24T12:52:35.823Z,4464
2016-05-24T12:53:35.841Z,4424
2016-05-24T12:54:35.875Z,4092
2016-05-24T12:55:35.909Z,3920
2016-05-24T12:56:35.786Z,3872
2016-05-24T12:57:35.805Z,3760
2016-05-24T12:58:35.994Z,3732
2016-05-24T12:59:36.107Z,3660
2016-05-24T13:00:36.532Z,3592
2016-05-24T13:01:36.065Z,3552
2016-05-24T13:02:35.990Z,3524
2016-05-24T13:03:35.821Z,3604
2016-05-24T13:04:36.245Z,3760
2016-05-24T13:05:36.170Z,3792
2016-05-24T13:06:36.048Z,3824
2016-05-24T13:07:36.066Z,3768
2016-05-24T13:08:36.271Z,3708
2016-05-24T13:09:36.181Z,3620
2016-05-24T13:10:36.339Z,3512
2016-05-24T13:11:36.358Z,3440
2016-05-24T13:12:36.360Z,3332
2016-05-24T13:13:36.442Z,3268
2016-05-24T13:14:36.413Z,3288
2016-05-24T13:15:36.400Z,3388
2016-05-24T13:16:36.528Z,3572
2016-05-24T13:17:36.608Z,3696
2016-05-24T13:18:36.642Z,3708
2016-05-24T13:19:36.551Z,3508
2016-05-24T13:20:36.695Z,3280
2016-05-24T13:21:36.494Z,3064
2016-05-24T13:22:36.637Z,2800
2016-05-24T13:23:36.577Z,2616
2016-05-24T13:24:36.549Z,2520
2016-05-24T13:25:36.833Z,2536
2016-05-24T13:26:36.866Z,2632
2016-05-24T13:27:36.636Z,2788
2016-05-24T13:28:36.654Z,2968
2016-05-24T13:29:36.828Z,3204
2016-05-24T13:30:36.769Z,3500
2016-05-24T13:31:36.896Z,3808
2016-05-24T13:32:36.977Z,4024
2016-05-24T13:33:36.949Z,4092
2016-05-24T13:34:36.826Z,4076
2016-05-24T13:35:36.985Z,3896
2016-05-24T13:36:37.129Z,3708
2016-05-24T13:37:37.052Z,3468
2016-05-24T13:38:37.071Z,3148
2016-05-24T13:39:36.808Z,2844
2016-05-24T13:40:37.139Z,2616
2016-05-24T13:41:37.235Z,2488
2016-05-24T13:42:37.066Z,2432
2016-05-24T13:43:37.225Z,2472
2016-05-24T13:44:37.259Z,2620
2016-05-24T13:45:36.995Z,2852
2016-05-24T13:46:37.295Z,3136
2016-05-24T13:47:37.221Z,3476